sensor_id;sensor_type;location;lat;lon;timestamp;temperature;humidity
18297;DHT22;18066;52.106;5.534;2023-04-03T00:01:42;4.10;99.90
18297;DHT22;18066;52.106;5.534;2023-04-03T00:04:09;4.10;99.90
18297;DHT22;18066;52.106;5.534;2023-04-03T00:06:36;4.30;99.90
18297;DHT22;18066;52.106;5.534;2023-04-03T00:09:03;4.20;99.90
18297;DHT22;18066;52.106;5.534;2023-04-03T00:11:30;4.30;99.90
18297;DHT22;18066;52.106;5.534;2023-04-03T00:13:58;3.90;99.90
18297;DHT22;18066;52.106;5.534;2023-04-03T00:16:25;4.30;99.90
18297;DHT22;18066;52.106;5.534;2023-04-03T00:18:52;4.20;99.90
18297;DHT22;18066;52.106;5.534;2023-04-03T00:21:19;3.90;99.90
18297;DHT22;18066;52.106;5.534;2023-04-03T00:23:45;4.00;99.90
18297;DHT22;18066;52.106;5.534;2023-04-03T00:26:12;3.90;99.90
18297;DHT22;18066;52.106;5.534;2023-04-03T00:28:39;3.90;99.90
18297;DHT22;18066;52.106;5.534;2023-04-03T00:31:07;3.90;99.90
18297;DHT22;18066;52.106;5.534;2023-04-03T00:33:34;3.90;99.90
18297;DHT22;18066;52.106;5.534;2023-04-03T00:36:06;3.90;99.90
18297;DHT22;18066;52.106;5.534;2023-04-03T00:38:33;3.80;99.90
18297;DHT22;18066;52.106;5.534;2023-04-03T00:41:00;3.80;99.90
18297;DHT22;18066;52.106;5.534;2023-04-03T00:43:27;3.70;99.90
18297;DHT22;18066;52.106;5.534;2023-04-03T00:45:55;3.70;99.90
18297;DHT22;18066;52.106;5.534;2023-04-03T00:48:27;3.70;99.90
18297;DHT22;18066;52.106;5.534;2023-04-03T00:50:55;3.70;99.90
18297;DHT22;18066;52.106;5.534;2023-04-03T00:53:25;3.70;99.90
18297;DHT22;18066;52.106;5.534;2023-04-03T00:55:53;3.70;99.90
18297;DHT22;18066;52.106;5.534;2023-04-03T00:58:21;3.60;99.90
18297;DHT22;18066;52.106;5.534;2023-04-03T01:00:55;3.60;99.90
18297;DHT22;18066;52.106;5.534;2023-04-03T01:03:26;3.60;99.90
18297;DHT22;18066;52.106;5.534;2023-04-03T01:05:52;3.70;99.90
18297;DHT22;18066;52.106;5.534;2023-04-03T01:08:20;3.60;99.90
18297;DHT22;18066;52.106;5.534;2023-04-03T01:10:47;3.60;99.90
18297;DHT22;18066;52.106;5.534;2023-04-03T01:13:21;3.60;99.90
18297;DHT22;18066;52.106;5.534;2023-04-03T01:15:48;3.50;99.90
18297;DHT22;18066;52.106;5.534;2023-04-03T01:18:15;3.50;99.90
18297;DHT22;18066;52.106;5.534;2023-04-03T01:21:08;3.80;99.90
18297;DHT22;18066;52.106;5.534;2023-04-03T01:23:48;3.50;99.90
18297;DHT22;18066;52.106;5.534;2023-04-03T01:26:18;3.40;99.90
18297;DHT22;18066;52.106;5.534;2023-04-03T01:28:46;3.40;99.90
18297;DHT22;18066;52.106;5.534;2023-04-03T01:31:19;3.40;99.90
18297;DHT22;18066;52.106;5.534;2023-04-03T01:33:48;3.50;99.90
18297;DHT22;18066;52.106;5.534;2023-04-03T01:36:17;3.40;99.90
18297;DHT22;18066;52.106;5.534;2023-04-03T01:38:44;3.40;99.90
18297;DHT22;18066;52.106;5.534;2023-04-03T01:41:11;3.40;99.90
18297;DHT22;18066;52.106;5.534;2023-04-03T01:43:38;3.40;99.90
18297;DHT22;18066;52.106;5.534;2023-04-03T01:46:05;3.30;99.90
18297;DHT22;18066;52.106;5.534;2023-04-03T01:48:33;3.60;99.90
18297;DHT22;18066;52.106;5.534;2023-04-03T01:51:01;3.20;99.90
18297;DHT22;18066;52.106;5.534;2023-04-03T01:53:28;3.20;99.90
18297;DHT22;18066;52.106;5.534;2023-04-03T01:55:55;3.60;99.90
18297;DHT22;18066;52.106;5.534;2023-04-03T01:58:22;3.40;99.90
18297;DHT22;18066;52.106;5.534;2023-04-03T02:00:49;3.20;99.90
18297;DHT22;18066;52.106;5.534;2023-04-03T02:03:16;3.50;99.90
18297;DHT22;18066;52.106;5.534;2023-04-03T02:05:43;3.10;99.90
18297;DHT22;18066;52.106;5.534;2023-04-03T02:08:11;3.10;99.90
18297;DHT22;18066;52.106;5.534;2023-04-03T02:10:39;3.10;99.90
18297;DHT22;18066;52.106;5.534;2023-04-03T02:13:06;3.10;99.90
18297;DHT22;18066;52.106;5.534;2023-04-03T02:15:33;3.00;99.90
18297;DHT22;18066;52.106;5.534;2023-04-03T02:18:00;3.10;99.90
18297;DHT22;18066;52.106;5.534;2023-04-03T02:20:27;3.10;99.90
18297;DHT22;18066;52.106;5.534;2023-04-03T02:22:53;3.20;99.90
18297;DHT22;18066;52.106;5.534;2023-04-03T02:25:22;3.40;99.90
18297;DHT22;18066;52.106;5.534;2023-04-03T02:27:49;3.10;99.90
18297;DHT22;18066;52.106;5.534;2023-04-03T02:30:16;3.10;99.90
18297;DHT22;18066;52.106;5.534;2023-04-03T02:32:43;3.40;99.90
18297;DHT22;18066;52.106;5.534;2023-04-03T02:35:10;3.00;99.90
18297;DHT22;18066;52.106;5.534;2023-04-03T02:37:38;3.00;99.90
18297;DHT22;18066;52.106;5.534;2023-04-03T02:40:06;3.30;99.90
18297;DHT22;18066;52.106;5.534;2023-04-03T02:42:34;3.00;99.90
18297;DHT22;18066;52.106;5.534;2023-04-03T02:45:01;3.30;99.90
18297;DHT22;18066;52.106;5.534;2023-04-03T02:47:28;3.10;99.90
18297;DHT22;18066;52.106;5.534;2023-04-03T02:49:55;3.40;99.90
18297;DHT22;18066;52.106;5.534;2023-04-03T02:52:22;3.20;99.90
18297;DHT22;18066;52.106;5.534;2023-04-03T02:54:49;3.20;99.90
18297;DHT22;18066;52.106;5.534;2023-04-03T02:57:16;3.50;99.90
18297;DHT22;18066;52.106;5.534;2023-04-03T02:59:46;3.60;99.90
18297;DHT22;18066;52.106;5.534;2023-04-03T03:02:13;3.50;99.90
18297;DHT22;18066;52.106;5.534;2023-04-03T03:04:40;3.20;99.90
18297;DHT22;18066;52.106;5.534;2023-04-03T03:07:08;3.20;99.90
18297;DHT22;18066;52.106;5.534;2023-04-03T03:09:35;3.10;99.90
18297;DHT22;18066;52.106;5.534;2023-04-03T03:12:02;3.30;99.90
18297;DHT22;18066;52.106;5.534;2023-04-03T03:14:29;3.00;99.90
18297;DHT22;18066;52.106;5.534;2023-04-03T03:16:57;3.10;99.90
18297;DHT22;18066;52.106;5.534;2023-04-03T03:19:24;2.80;99.90
18297;DHT22;18066;52.106;5.534;2023-04-03T03:21:51;2.80;99.90
18297;DHT22;18066;52.106;5.534;2023-04-03T03:24:18;3.00;99.90
18297;DHT22;18066;52.106;5.534;2023-04-03T03:26:45;3.10;99.90
18297;DHT22;18066;52.106;5.534;2023-04-03T03:29:12;2.70;99.90
18297;DHT22;18066;52.106;5.534;2023-04-03T03:31:39;2.80;99.90
18297;DHT22;18066;52.106;5.534;2023-04-03T03:34:08;3.00;99.90
18297;DHT22;18066;52.106;5.534;2023-04-03T03:36:35;2.60;99.90
18297;DHT22;18066;52.106;5.534;2023-04-03T03:39:02;2.60;99.90
18297;DHT22;18066;52.106;5.534;2023-04-03T03:41:29;2.50;99.90
18297;DHT22;18066;52.106;5.534;2023-04-03T03:43:56;2.80;99.90
18297;DHT22;18066;52.106;5.534;2023-04-03T03:46:23;2.80;99.90
18297;DHT22;18066;52.106;5.534;2023-04-03T03:48:50;2.80;99.90
18297;DHT22;18066;52.106;5.534;2023-04-03T03:51:19;2.90;99.90
18297;DHT22;18066;52.106;5.534;2023-04-03T03:53:46;2.80;99.90
18297;DHT22;18066;52.106;5.534;2023-04-03T03:56:12;3.20;99.90
18297;DHT22;18066;52.106;5.534;2023-04-03T03:58:39;3.30;99.90
18297;DHT22;18066;52.106;5.534;2023-04-03T04:01:07;3.00;99.90
18297;DHT22;18066;52.106;5.534;2023-04-03T04:03:34;3.40;99.90
18297;DHT22;18066;52.106;5.534;2023-04-03T04:06:01;3.00;99.90
18297;DHT22;18066;52.106;5.534;2023-04-03T04:08:29;2.80;99.90
18297;DHT22;18066;52.106;5.534;2023-04-03T04:10:56;2.70;99.90
18297;DHT22;18066;52.106;5.534;2023-04-03T04:13:23;2.60;99.90
18297;DHT22;18066;52.106;5.534;2023-04-03T04:15:50;2.60;99.90
18297;DHT22;18066;52.106;5.534;2023-04-03T04:18:17;2.80;99.90
18297;DHT22;18066;52.106;5.534;2023-04-03T04:20:45;2.50;99.90
18297;DHT22;18066;52.106;5.534;2023-04-03T04:23:12;2.40;99.90
18297;DHT22;18066;52.106;5.534;2023-04-03T04:25:40;2.40;99.90
18297;DHT22;18066;52.106;5.534;2023-04-03T04:28:07;2.70;99.90
18297;DHT22;18066;52.106;5.534;2023-04-03T04:30:34;2.30;99.90
18297;DHT22;18066;52.106;5.534;2023-04-03T04:33:01;2.30;99.90
18297;DHT22;18066;52.106;5.534;2023-04-03T04:35:28;2.20;99.90
18297;DHT22;18066;52.106;5.534;2023-04-03T04:37:55;2.60;99.90
18297;DHT22;18066;52.106;5.534;2023-04-03T04:40:22;2.50;99.90
18297;DHT22;18066;52.106;5.534;2023-04-03T04:42:50;2.20;99.90
18297;DHT22;18066;52.106;5.534;2023-04-03T04:45:18;2.20;99.90
18297;DHT22;18066;52.106;5.534;2023-04-03T04:47:45;2.60;99.90
18297;DHT22;18066;52.106;5.534;2023-04-03T04:50:12;2.20;99.90
18297;DHT22;18066;52.106;5.534;2023-04-03T04:52:39;2.20;99.90
18297;DHT22;18066;52.106;5.534;2023-04-03T04:55:07;2.10;99.90
18297;DHT22;18066;52.106;5.534;2023-04-03T04:57:34;2.20;99.90
18297;DHT22;18066;52.106;5.534;2023-04-03T05:00:05;2.20;99.90
18297;DHT22;18066;52.106;5.534;2023-04-03T05:02:32;2.20;99.90
18297;DHT22;18066;52.106;5.534;2023-04-03T05:04:59;2.10;99.90
18297;DHT22;18066;52.106;5.534;2023-04-03T05:07:26;2.20;99.90
18297;DHT22;18066;52.106;5.534;2023-04-03T05:09:52;2.60;99.90
18297;DHT22;18066;52.106;5.534;2023-04-03T05:12:19;2.30;99.90
18297;DHT22;18066;52.106;5.534;2023-04-03T05:14:46;2.20;99.90
18297;DHT22;18066;52.106;5.534;2023-04-03T05:17:14;2.30;99.90
18297;DHT22;18066;52.106;5.534;2023-04-03T05:19:41;2.30;99.90
18297;DHT22;18066;52.106;5.534;2023-04-03T05:22:08;2.20;99.90
18297;DHT22;18066;52.106;5.534;2023-04-03T05:24:35;2.30;99.90
18297;DHT22;18066;52.106;5.534;2023-04-03T05:27:02;2.20;99.90
18297;DHT22;18066;52.106;5.534;2023-04-03T05:29:29;2.00;99.90
18297;DHT22;18066;52.106;5.534;2023-04-03T05:31:56;2.20;99.90
18297;DHT22;18066;52.106;5.534;2023-04-03T05:34:24;2.20;99.90
18297;DHT22;18066;52.106;5.534;2023-04-03T05:36:51;2.20;99.90
18297;DHT22;18066;52.106;5.534;2023-04-03T05:39:18;2.20;99.90
18297;DHT22;18066;52.106;5.534;2023-04-03T05:41:45;2.30;99.90
18297;DHT22;18066;52.106;5.534;2023-04-03T05:44:12;2.30;99.90
18297;DHT22;18066;52.106;5.534;2023-04-03T05:46:39;2.30;99.90
18297;DHT22;18066;52.106;5.534;2023-04-03T05:49:06;2.30;99.90
18297;DHT22;18066;52.106;5.534;2023-04-03T05:51:36;2.30;99.90
18297;DHT22;18066;52.106;5.534;2023-04-03T05:54:08;2.20;99.90
18297;DHT22;18066;52.106;5.534;2023-04-03T05:56:36;2.30;99.90
18297;DHT22;18066;52.106;5.534;2023-04-03T05:59:03;2.30;99.90
18297;DHT22;18066;52.106;5.534;2023-04-03T06:01:29;2.60;99.90
18297;DHT22;18066;52.106;5.534;2023-04-03T06:03:56;2.30;99.90
18297;DHT22;18066;52.106;5.534;2023-04-03T06:06:24;2.40;99.90
18297;DHT22;18066;52.106;5.534;2023-04-03T06:08:52;2.40;99.90
18297;DHT22;18066;52.106;5.534;2023-04-03T06:11:19;2.40;99.90
18297;DHT22;18066;52.106;5.534;2023-04-03T06:13:47;2.50;99.90
18297;DHT22;18066;52.106;5.534;2023-04-03T06:16:14;2.40;99.90
18297;DHT22;18066;52.106;5.534;2023-04-03T06:18:41;2.50;99.90
18297;DHT22;18066;52.106;5.534;2023-04-03T06:21:08;2.50;99.90
18297;DHT22;18066;52.106;5.534;2023-04-03T06:23:35;2.60;99.90
18297;DHT22;18066;52.106;5.534;2023-04-03T06:26:04;2.50;99.90
18297;DHT22;18066;52.106;5.534;2023-04-03T06:28:32;2.60;99.90
18297;DHT22;18066;52.106;5.534;2023-04-03T06:30:59;2.70;99.90
18297;DHT22;18066;52.106;5.534;2023-04-03T06:33:26;2.70;99.90
18297;DHT22;18066;52.106;5.534;2023-04-03T06:35:56;2.80;99.90
18297;DHT22;18066;52.106;5.534;2023-04-03T06:38:23;2.80;99.90
18297;DHT22;18066;52.106;5.534;2023-04-03T06:40:50;2.80;99.90
18297;DHT22;18066;52.106;5.534;2023-04-03T06:43:19;2.80;99.90
18297;DHT22;18066;52.106;5.534;2023-04-03T06:45:47;2.90;99.90
18297;DHT22;18066;52.106;5.534;2023-04-03T06:48:13;3.10;99.90
18297;DHT22;18066;52.106;5.534;2023-04-03T06:50:40;2.90;99.90
18297;DHT22;18066;52.106;5.534;2023-04-03T06:53:07;3.00;99.90
18297;DHT22;18066;52.106;5.534;2023-04-03T06:55:35;3.00;99.90
18297;DHT22;18066;52.106;5.534;2023-04-03T06:58:02;3.50;99.90
18297;DHT22;18066;52.106;5.534;2023-04-03T07:00:30;3.20;99.90
18297;DHT22;18066;52.106;5.534;2023-04-03T07:02:57;3.30;99.90
18297;DHT22;18066;52.106;5.534;2023-04-03T07:05:25;3.30;99.90
18297;DHT22;18066;52.106;5.534;2023-04-03T07:07:52;3.30;99.90
18297;DHT22;18066;52.106;5.534;2023-04-03T07:10:19;3.40;99.90
18297;DHT22;18066;52.106;5.534;2023-04-03T07:12:46;3.50;99.90
18297;DHT22;18066;52.106;5.534;2023-04-03T07:15:13;3.60;99.90
18297;DHT22;18066;52.106;5.534;2023-04-03T07:17:42;3.70;99.90
18297;DHT22;18066;52.106;5.534;2023-04-03T07:20:10;4.00;99.90
18297;DHT22;18066;52.106;5.534;2023-04-03T07:22:37;3.80;99.90
18297;DHT22;18066;52.106;5.534;2023-04-03T07:25:05;3.90;99.90
18297;DHT22;18066;52.106;5.534;2023-04-03T07:27:33;4.10;99.90
18297;DHT22;18066;52.106;5.534;2023-04-03T07:30:00;4.20;99.90
18297;DHT22;18066;52.106;5.534;2023-04-03T07:32:26;4.30;99.90
18297;DHT22;18066;52.106;5.534;2023-04-03T07:34:55;4.50;99.90
18297;DHT22;18066;52.106;5.534;2023-04-03T07:37:22;4.50;99.90
18297;DHT22;18066;52.106;5.534;2023-04-03T07:39:49;4.60;99.90
18297;DHT22;18066;52.106;5.534;2023-04-03T07:42:16;4.90;99.90
18297;DHT22;18066;52.106;5.534;2023-04-03T07:44:43;4.90;99.90
18297;DHT22;18066;52.106;5.534;2023-04-03T07:47:11;4.90;99.90
18297;DHT22;18066;52.106;5.534;2023-04-03T07:49:39;5.00;99.90
18297;DHT22;18066;52.106;5.534;2023-04-03T07:52:08;5.20;99.90
18297;DHT22;18066;52.106;5.534;2023-04-03T07:54:35;5.30;99.90
18297;DHT22;18066;52.106;5.534;2023-04-03T07:57:02;5.30;99.90
18297;DHT22;18066;52.106;5.534;2023-04-03T07:59:30;5.30;99.90
18297;DHT22;18066;52.106;5.534;2023-04-03T08:01:57;5.40;99.90
18297;DHT22;18066;52.106;5.534;2023-04-03T08:04:24;5.40;99.90
18297;DHT22;18066;52.106;5.534;2023-04-03T08:06:51;5.40;99.90
18297;DHT22;18066;52.106;5.534;2023-04-03T08:09:20;5.40;99.90
18297;DHT22;18066;52.106;5.534;2023-04-03T08:11:47;5.40;99.90
18297;DHT22;18066;52.106;5.534;2023-04-03T08:14:14;5.50;99.90
18297;DHT22;18066;52.106;5.534;2023-04-03T08:16:47;5.50;99.90
18297;DHT22;18066;52.106;5.534;2023-04-03T08:19:15;5.50;99.90
18297;DHT22;18066;52.106;5.534;2023-04-03T08:21:43;5.60;99.90
18297;DHT22;18066;52.106;5.534;2023-04-03T08:24:11;5.60;99.90
18297;DHT22;18066;52.106;5.534;2023-04-03T08:26:39;5.80;99.90
18297;DHT22;18066;52.106;5.534;2023-04-03T08:29:06;5.90;99.90
18297;DHT22;18066;52.106;5.534;2023-04-03T08:31:33;6.10;99.90
18297;DHT22;18066;52.106;5.534;2023-04-03T08:34:00;6.10;99.90
18297;DHT22;18066;52.106;5.534;2023-04-03T08:36:28;6.30;99.90
18297;DHT22;18066;52.106;5.534;2023-04-03T08:38:56;6.40;99.90
18297;DHT22;18066;52.106;5.534;2023-04-03T08:41:29;6.60;99.90
18297;DHT22;18066;52.106;5.534;2023-04-03T08:44:03;6.60;99.90
18297;DHT22;18066;52.106;5.534;2023-04-03T08:46:42;6.50;99.90
18297;DHT22;18066;52.106;5.534;2023-04-03T08:49:13;6.50;99.90
18297;DHT22;18066;52.106;5.534;2023-04-03T08:51:46;6.50;99.90
18297;DHT22;18066;52.106;5.534;2023-04-03T08:54:25;6.60;99.90
18297;DHT22;18066;52.106;5.534;2023-04-03T08:56:53;6.80;99.90
18297;DHT22;18066;52.106;5.534;2023-04-03T08:59:27;7.00;99.90
18297;DHT22;18066;52.106;5.534;2023-04-03T09:01:57;7.10;99.90
18297;DHT22;18066;52.106;5.534;2023-04-03T09:04:26;7.30;99.90
18297;DHT22;18066;52.106;5.534;2023-04-03T09:06:56;7.30;99.90
18297;DHT22;18066;52.106;5.534;2023-04-03T09:09:31;7.30;99.90
18297;DHT22;18066;52.106;5.534;2023-04-03T09:12:06;7.00;99.90
18297;DHT22;18066;52.106;5.534;2023-04-03T09:14:46;7.00;99.90
18297;DHT22;18066;52.106;5.534;2023-04-03T09:17:22;7.10;99.90
18297;DHT22;18066;52.106;5.534;2023-04-03T09:19:58;7.30;99.90
18297;DHT22;18066;52.106;5.534;2023-04-03T09:22:31;7.40;99.90
18297;DHT22;18066;52.106;5.534;2023-04-03T09:25:03;7.60;99.90
18297;DHT22;18066;52.106;5.534;2023-04-03T09:27:33;7.60;99.90
18297;DHT22;18066;52.106;5.534;2023-04-03T09:30:02;7.80;99.90
18297;DHT22;18066;52.106;5.534;2023-04-03T09:32:33;8.00;99.90
18297;DHT22;18066;52.106;5.534;2023-04-03T09:35:03;8.00;99.90
18297;DHT22;18066;52.106;5.534;2023-04-03T09:37:38;8.10;99.90
18297;DHT22;18066;52.106;5.534;2023-04-03T09:40:32;8.20;99.90
18297;DHT22;18066;52.106;5.534;2023-04-03T09:43:02;8.20;99.90
18297;DHT22;18066;52.106;5.534;2023-04-03T09:45:30;8.10;99.90
18297;DHT22;18066;52.106;5.534;2023-04-03T09:48:13;8.10;99.90
18297;DHT22;18066;52.106;5.534;2023-04-03T09:50:54;8.00;99.90
18297;DHT22;18066;52.106;5.534;2023-04-03T09:53:35;8.00;99.90
18297;DHT22;18066;52.106;5.534;2023-04-03T09:56:19;7.90;99.90
18297;DHT22;18066;52.106;5.534;2023-04-03T09:58:48;7.90;99.90
18297;DHT22;18066;52.106;5.534;2023-04-03T10:01:26;7.90;99.90
18297;DHT22;18066;52.106;5.534;2023-04-03T10:04:08;8.00;99.90
18297;DHT22;18066;52.106;5.534;2023-04-03T10:06:38;8.10;99.90
18297;DHT22;18066;52.106;5.534;2023-04-03T10:09:18;8.20;99.90
18297;DHT22;18066;52.106;5.534;2023-04-03T10:12:05;8.40;99.90
18297;DHT22;18066;52.106;5.534;2023-04-03T10:14:35;8.30;99.90
18297;DHT22;18066;52.106;5.534;2023-04-03T10:17:11;8.70;99.90
18297;DHT22;18066;52.106;5.534;2023-04-03T10:19:42;8.80;99.90
18297;DHT22;18066;52.106;5.534;2023-04-03T10:22:18;9.00;99.90
18297;DHT22;18066;52.106;5.534;2023-04-03T10:25:01;8.80;99.90
18297;DHT22;18066;52.106;5.534;2023-04-03T10:27:40;8.80;99.90
18297;DHT22;18066;52.106;5.534;2023-04-03T10:30:21;8.80;99.90
18297;DHT22;18066;52.106;5.534;2023-04-03T10:32:58;8.90;99.90
18297;DHT22;18066;52.106;5.534;2023-04-03T10:35:37;8.90;99.90
18297;DHT22;18066;52.106;5.534;2023-04-03T10:38:13;9.00;99.90
18297;DHT22;18066;52.106;5.534;2023-04-03T10:40:47;9.10;99.90
18297;DHT22;18066;52.106;5.534;2023-04-03T10:43:24;9.10;99.90
18297;DHT22;18066;52.106;5.534;2023-04-03T10:46:00;9.00;99.90
18297;DHT22;18066;52.106;5.534;2023-04-03T10:48:43;8.80;99.90
18297;DHT22;18066;52.106;5.534;2023-04-03T10:51:20;8.70;99.90
18297;DHT22;18066;52.106;5.534;2023-04-03T10:53:55;8.80;99.90
18297;DHT22;18066;52.106;5.534;2023-04-03T10:56:30;8.80;99.90
18297;DHT22;18066;52.106;5.534;2023-04-03T10:59:04;9.00;99.90
18297;DHT22;18066;52.106;5.534;2023-04-03T11:01:37;9.00;99.90
18297;DHT22;18066;52.106;5.534;2023-04-03T11:04:06;9.10;99.90
18297;DHT22;18066;52.106;5.534;2023-04-03T11:06:37;9.30;99.90
18297;DHT22;18066;52.106;5.534;2023-04-03T11:09:15;9.50;99.90
18297;DHT22;18066;52.106;5.534;2023-04-03T11:11:44;9.30;99.90
18297;DHT22;18066;52.106;5.534;2023-04-03T11:14:20;9.20;99.90
18297;DHT22;18066;52.106;5.534;2023-04-03T11:16:53;9.10;99.90
18297;DHT22;18066;52.106;5.534;2023-04-03T11:19:32;9.10;99.90
18297;DHT22;18066;52.106;5.534;2023-04-03T11:22:04;9.30;99.90
18297;DHT22;18066;52.106;5.534;2023-04-03T11:24:33;9.20;99.90
18297;DHT22;18066;52.106;5.534;2023-04-03T11:27:02;9.30;99.90
18297;DHT22;18066;52.106;5.534;2023-04-03T11:29:35;9.50;99.90
18297;DHT22;18066;52.106;5.534;2023-04-03T11:32:15;9.60;99.90
18297;DHT22;18066;52.106;5.534;2023-04-03T11:34:49;9.80;99.90
18297;DHT22;18066;52.106;5.534;2023-04-03T11:37:29;9.90;99.90
18297;DHT22;18066;52.106;5.534;2023-04-03T11:40:02;9.90;99.90
18297;DHT22;18066;52.106;5.534;2023-04-03T11:42:33;10.10;99.90
18297;DHT22;18066;52.106;5.534;2023-04-03T11:45:30;10.10;99.90
18297;DHT22;18066;52.106;5.534;2023-04-03T11:47:59;10.10;99.90
18297;DHT22;18066;52.106;5.534;2023-04-03T11:50:42;10.00;99.90
18297;DHT22;18066;52.106;5.534;2023-04-03T11:53:34;9.90;99.90
18297;DHT22;18066;52.106;5.534;2023-04-03T11:56:30;9.70;99.90
18297;DHT22;18066;52.106;5.534;2023-04-03T11:59:22;9.30;99.90
18297;DHT22;18066;52.106;5.534;2023-04-03T12:01:50;9.20;99.90
18297;DHT22;18066;52.106;5.534;2023-04-03T12:04:19;9.00;99.90
18297;DHT22;18066;52.106;5.534;2023-04-03T12:06:53;9.10;99.90
18297;DHT22;18066;52.106;5.534;2023-04-03T12:09:28;9.10;99.90
18297;DHT22;18066;52.106;5.534;2023-04-03T12:11:59;9.00;99.90
18297;DHT22;18066;52.106;5.534;2023-04-03T12:14:28;8.90;99.90
18297;DHT22;18066;52.106;5.534;2023-04-03T12:16:55;9.00;99.90
18297;DHT22;18066;52.106;5.534;2023-04-03T12:19:34;9.10;99.90
18297;DHT22;18066;52.106;5.534;2023-04-03T12:22:08;9.30;99.90
18297;DHT22;18066;52.106;5.534;2023-04-03T12:24:36;9.40;99.90
18297;DHT22;18066;52.106;5.534;2023-04-03T12:27:17;9.30;99.90
18297;DHT22;18066;52.106;5.534;2023-04-03T12:29:54;9.40;99.90
18297;DHT22;18066;52.106;5.534;2023-04-03T12:32:34;9.50;99.90
18297;DHT22;18066;52.106;5.534;2023-04-03T12:35:14;9.40;99.90
18297;DHT22;18066;52.106;5.534;2023-04-03T12:38:10;9.30;99.90
18297;DHT22;18066;52.106;5.534;2023-04-03T12:40:44;9.20;99.90
18297;DHT22;18066;52.106;5.534;2023-04-03T12:43:41;9.50;99.90
18297;DHT22;18066;52.106;5.534;2023-04-03T12:46:13;9.70;99.90
18297;DHT22;18066;52.106;5.534;2023-04-03T12:48:48;9.80;99.90
18297;DHT22;18066;52.106;5.534;2023-04-03T12:51:18;9.90;99.90
18297;DHT22;18066;52.106;5.534;2023-04-03T12:53:46;9.90;99.90
18297;DHT22;18066;52.106;5.534;2023-04-03T12:56:22;10.10;99.90
18297;DHT22;18066;52.106;5.534;2023-04-03T12:58:53;10.00;99.90
18297;DHT22;18066;52.106;5.534;2023-04-03T13:01:21;9.90;99.90
18297;DHT22;18066;52.106;5.534;2023-04-03T13:03:52;9.80;99.90
18297;DHT22;18066;52.106;5.534;2023-04-03T13:06:21;10.00;99.90
18297;DHT22;18066;52.106;5.534;2023-04-03T13:08:51;10.00;99.90
18297;DHT22;18066;52.106;5.534;2023-04-03T13:11:20;10.00;99.90
18297;DHT22;18066;52.106;5.534;2023-04-03T13:13:57;10.00;99.90
18297;DHT22;18066;52.106;5.534;2023-04-03T13:16:24;9.80;99.90
18297;DHT22;18066;52.106;5.534;2023-04-03T13:18:52;9.80;99.90
18297;DHT22;18066;52.106;5.534;2023-04-03T13:21:21;9.80;99.90
18297;DHT22;18066;52.106;5.534;2023-04-03T13:23:52;10.00;99.90
18297;DHT22;18066;52.106;5.534;2023-04-03T13:26:20;9.90;99.90
18297;DHT22;18066;52.106;5.534;2023-04-03T13:28:48;9.80;99.90
18297;DHT22;18066;52.106;5.534;2023-04-03T13:31:22;9.70;99.90
18297;DHT22;18066;52.106;5.534;2023-04-03T13:33:55;9.80;99.90
18297;DHT22;18066;52.106;5.534;2023-04-03T13:36:26;9.90;99.90
18297;DHT22;18066;52.106;5.534;2023-04-03T13:39:04;10.10;99.90
18297;DHT22;18066;52.106;5.534;2023-04-03T13:41:33;10.10;99.90
18297;DHT22;18066;52.106;5.534;2023-04-03T13:44:23;10.00;99.90
18297;DHT22;18066;52.106;5.534;2023-04-03T13:46:54;10.00;99.90
18297;DHT22;18066;52.106;5.534;2023-04-03T13:49:29;9.80;99.90
18297;DHT22;18066;52.106;5.534;2023-04-03T13:51:56;9.80;99.90
18297;DHT22;18066;52.106;5.534;2023-04-03T13:54:28;9.90;99.90
18297;DHT22;18066;52.106;5.534;2023-04-03T13:56:57;9.80;99.90
18297;DHT22;18066;52.106;5.534;2023-04-03T13:59:28;9.80;99.90
18297;DHT22;18066;52.106;5.534;2023-04-03T14:02:13;9.90;99.90
18297;DHT22;18066;52.106;5.534;2023-04-03T14:04:53;9.90;99.90
18297;DHT22;18066;52.106;5.534;2023-04-03T14:07:24;9.90;99.90
18297;DHT22;18066;52.106;5.534;2023-04-03T14:09:51;9.80;99.90
18297;DHT22;18066;52.106;5.534;2023-04-03T14:12:21;9.80;99.90
18297;DHT22;18066;52.106;5.534;2023-04-03T14:14:51;9.90;99.90
18297;DHT22;18066;52.106;5.534;2023-04-03T14:17:22;9.80;99.90
18297;DHT22;18066;52.106;5.534;2023-04-03T14:19:50;10.00;99.90
18297;DHT22;18066;52.106;5.534;2023-04-03T14:22:20;10.20;99.90
18297;DHT22;18066;52.106;5.534;2023-04-03T14:24:50;10.40;99.90
18297;DHT22;18066;52.106;5.534;2023-04-03T14:27:19;10.70;99.90
18297;DHT22;18066;52.106;5.534;2023-04-03T14:29:47;10.60;99.90
18297;DHT22;18066;52.106;5.534;2023-04-03T14:32:16;10.60;99.90
18297;DHT22;18066;52.106;5.534;2023-04-03T14:34:45;10.60;99.90
18297;DHT22;18066;52.106;5.534;2023-04-03T14:37:16;10.80;99.90
18297;DHT22;18066;52.106;5.534;2023-04-03T14:39:44;11.00;99.90
18297;DHT22;18066;52.106;5.534;2023-04-03T14:42:16;10.90;99.90
18297;DHT22;18066;52.106;5.534;2023-04-03T14:44:44;11.10;99.90
18297;DHT22;18066;52.106;5.534;2023-04-03T14:47:12;11.40;99.90
18297;DHT22;18066;52.106;5.534;2023-04-03T14:49:40;11.80;99.90
18297;DHT22;18066;52.106;5.534;2023-04-03T14:52:17;12.50;99.90
18297;DHT22;18066;52.106;5.534;2023-04-03T14:54:45;13.50;99.90
18297;DHT22;18066;52.106;5.534;2023-04-03T14:57:14;14.00;99.90
18297;DHT22;18066;52.106;5.534;2023-04-03T14:59:42;15.00;99.90
18297;DHT22;18066;52.106;5.534;2023-04-03T15:02:28;15.30;99.90
18297;DHT22;18066;52.106;5.534;2023-04-03T15:04:55;14.10;99.90
18297;DHT22;18066;52.106;5.534;2023-04-03T15:07:27;13.70;99.90
18297;DHT22;18066;52.106;5.534;2023-04-03T15:09:55;14.30;99.90
18297;DHT22;18066;52.106;5.534;2023-04-03T15:12:22;14.80;99.90
18297;DHT22;18066;52.106;5.534;2023-04-03T15:14:49;15.30;99.90
18297;DHT22;18066;52.106;5.534;2023-04-03T15:17:17;15.80;99.90
18297;DHT22;18066;52.106;5.534;2023-04-03T15:19:46;15.40;99.90
18297;DHT22;18066;52.106;5.534;2023-04-03T15:22:14;15.30;99.90
18297;DHT22;18066;52.106;5.534;2023-04-03T15:24:42;14.60;99.90
18297;DHT22;18066;52.106;5.534;2023-04-03T15:27:10;15.40;99.90
18297;DHT22;18066;52.106;5.534;2023-04-03T15:29:38;15.10;99.90
18297;DHT22;18066;52.106;5.534;2023-04-03T15:32:06;14.80;99.90
18297;DHT22;18066;52.106;5.534;2023-04-03T15:34:33;14.50;99.90
18297;DHT22;18066;52.106;5.534;2023-04-03T15:37:00;14.30;99.90
18297;DHT22;18066;52.106;5.534;2023-04-03T15:39:26;15.10;99.90
18297;DHT22;18066;52.106;5.534;2023-04-03T15:41:55;15.70;99.90
18297;DHT22;18066;52.106;5.534;2023-04-03T15:44:25;16.30;99.90
18297;DHT22;18066;52.106;5.534;2023-04-03T15:46:52;16.00;99.00
18297;DHT22;18066;52.106;5.534;2023-04-03T15:49:19;15.90;99.90
18297;DHT22;18066;52.106;5.534;2023-04-03T15:51:47;16.30;99.80
18297;DHT22;18066;52.106;5.534;2023-04-03T15:54:14;16.20;99.00
18297;DHT22;18066;52.106;5.534;2023-04-03T15:56:41;16.70;99.40
18297;DHT22;18066;52.106;5.534;2023-04-03T15:59:10;17.40;99.90
18297;DHT22;18066;52.106;5.534;2023-04-03T16:01:37;17.30;99.40
18297;DHT22;18066;52.106;5.534;2023-04-03T16:04:07;17.20;98.50